createdAt,value
2023-01-05T00:00:31.018Z,2.20
2023-01-05T00:05:32.720Z,2.17
2023-01-05T00:10:55.057Z,3.07
2023-01-05T00:16:18.761Z,2.90
2023-01-05T00:21:38.962Z,3.23
2023-01-05T00:26:40.670Z,3.67
2023-01-05T00:31:43.726Z,2.70
2023-01-05T00:36:45.435Z,3.30
2023-01-05T00:41:47.133Z,3.13
2023-01-05T00:46:50.109Z,3.30
2023-01-05T00:51:51.748Z,3.13
2023-01-05T00:56:53.411Z,3.53
2023-01-05T01:01:56.633Z,3.90
2023-01-05T01:06:58.469Z,3.73
2023-01-05T01:12:00.200Z,3.40
2023-01-05T01:17:03.325Z,3.27
2023-01-05T01:22:05.021Z,3.97
2023-01-05T01:27:08.001Z,3.27
2023-01-05T01:32:11.086Z,3.60
2023-01-05T01:37:12.885Z,4.07
2023-01-05T01:42:20.851Z,2.90
2023-01-05T01:47:35.338Z,3.30
2023-01-05T01:52:37.155Z,3.03
2023-01-05T01:57:39.150Z,3.07
2023-01-05T02:02:42.412Z,3.43
2023-01-05T02:07:45.280Z,3.57
2023-01-05T02:12:58.851Z,3.37
2023-01-05T02:18:08.873Z,3.80
2023-01-05T02:23:38.798Z,4.20
2023-01-05T02:28:48.543Z,3.80
2023-01-05T02:34:00.253Z,4.30
2023-01-05T02:39:04.923Z,3.03
2023-01-05T02:44:07.392Z,3.47
2023-01-05T02:49:10.563Z,3.60
2023-01-05T02:54:13.809Z,3.07
2023-01-05T02:59:17.129Z,2.50
2023-01-05T03:04:21.301Z,4.00
2023-01-05T03:09:26.191Z,3.20
2023-01-05T03:14:32.326Z,3.33
2023-01-05T03:19:36.277Z,3.00
2023-01-05T03:24:56.644Z,2.30
2023-01-05T03:30:17.800Z,2.07
2023-01-05T03:35:33.855Z,2.50
2023-01-05T03:40:38.122Z,2.30
2023-01-05T03:45:41.143Z,2.37
2023-01-05T03:50:48.000Z,2.13
2023-01-05T03:55:51.402Z,2.13
2023-01-05T04:00:53.520Z,2.30
2023-01-05T04:05:59.005Z,2.13
2023-01-05T04:11:13.773Z,3.03
2023-01-05T04:16:16.037Z,2.33
2023-01-05T04:21:19.637Z,2.60
2023-01-05T04:26:23.453Z,3.07
2023-01-05T04:31:26.260Z,2.87
2023-01-05T04:36:31.944Z,3.23
2023-01-05T04:41:34.091Z,3.37
2023-01-05T04:46:36.001Z,3.40
2023-01-05T04:51:40.111Z,3.07
2023-01-05T04:56:43.675Z,3.00
2023-01-05T05:01:45.633Z,3.37
2023-01-05T05:06:50.969Z,3.47
2023-01-05T05:11:54.675Z,4.50
2023-01-05T05:16:58.193Z,3.83
2023-01-05T05:22:01.396Z,3.07
2023-01-05T05:27:03.051Z,3.43
2023-01-05T05:32:05.085Z,4.10
2023-01-05T05:37:08.528Z,4.00
2023-01-05T05:42:10.256Z,4.07
2023-01-05T05:47:11.959Z,3.83
2023-01-05T05:52:14.943Z,3.40
2023-01-05T05:57:17.518Z,4.00
2023-01-05T06:02:19.588Z,3.77
2023-01-05T06:07:22.696Z,3.10
2023-01-05T06:12:24.395Z,2.87
2023-01-05T06:17:26.198Z,3.47
2023-01-05T06:22:29.223Z,2.80
2023-01-05T06:27:31.038Z,3.20
2023-01-05T06:32:32.759Z,3.10
2023-01-05T06:37:35.833Z,3.33
2023-01-05T06:42:37.518Z,3.20
2023-01-05T06:47:39.215Z,3.00
2023-01-05T06:52:42.198Z,2.23
2023-01-05T06:57:43.926Z,3.13
2023-01-05T07:02:45.666Z,2.73
2023-01-05T07:07:48.673Z,2.60
2023-01-05T07:12:50.359Z,3.37
2023-01-05T07:17:52.037Z,2.77
2023-01-05T07:22:55.062Z,3.00
2023-01-05T07:27:56.883Z,4.97
2023-01-05T07:32:58.767Z,2.80
2023-01-05T07:38:01.801Z,2.17
2023-01-05T07:43:03.580Z,2.63
2023-01-05T07:48:05.718Z,2.80
2023-01-05T07:53:08.808Z,2.63
2023-01-05T07:58:10.483Z,1.97
2023-01-05T08:03:12.112Z,2.50
2023-01-05T08:08:20.597Z,2.13
2023-01-05T08:13:44.557Z,2.97
2023-01-05T08:18:46.276Z,2.50
2023-01-05T08:23:50.544Z,2.30
2023-01-05T08:28:52.329Z,3.10
2023-01-05T08:33:55.325Z,2.97
2023-01-05T08:39:01.075Z,2.63
2023-01-05T08:44:03.694Z,2.60
2023-01-05T08:49:06.524Z,2.43
2023-01-05T08:54:09.572Z,2.03
2023-01-05T08:59:12.024Z,2.10
2023-01-05T09:04:13.690Z,2.40
2023-01-05T09:09:16.706Z,1.73
2023-01-05T09:14:18.813Z,2.00
2023-01-05T09:19:20.516Z,1.77
2023-01-05T09:24:23.786Z,1.40
2023-01-05T09:29:25.567Z,1.43
2023-01-05T09:34:27.439Z,1.57
2023-01-05T09:39:30.584Z,1.33
2023-01-05T09:44:33.867Z,1.83
2023-01-05T09:49:35.576Z,1.53
2023-01-05T09:54:39.061Z,1.63
2023-01-05T09:59:42.158Z,1.60
2023-01-05T10:04:43.912Z,1.67
2023-01-05T10:09:47.131Z,1.57
2023-01-05T10:14:50.431Z,1.53
2023-01-05T10:19:52.174Z,2.07
2023-01-05T10:24:57.467Z,1.90
2023-01-05T10:30:03.109Z,2.60
2023-01-05T10:35:09.280Z,1.90
2023-01-05T10:40:28.504Z,1.90
2023-01-05T10:45:30.419Z,1.80
2023-01-05T10:50:36.050Z,2.03
2023-01-05T10:55:51.473Z,1.33
2023-01-05T11:00:54.755Z,1.60
2023-01-05T11:05:56.472Z,1.37
2023-01-05T11:11:00.050Z,1.63
2023-01-05T11:16:06.839Z,1.30
2023-01-05T11:21:11.136Z,1.43
2023-01-05T11:26:32.644Z,1.13
2023-01-05T11:31:36.215Z,1.20
2023-01-05T11:36:38.172Z,1.13
2023-01-05T11:41:42.234Z,1.53
2023-01-05T11:46:43.963Z,1.13
2023-01-05T11:51:45.716Z,1.10
2023-01-05T11:56:48.795Z,1.77
2023-01-05T12:02:00.191Z,1.40
2023-01-05T12:07:07.631Z,1.20
2023-01-05T12:12:19.711Z,1.43
2023-01-05T12:17:24.532Z,1.80
2023-01-05T12:22:43.108Z,1.30
2023-01-05T12:28:04.920Z,1.20
2023-01-05T12:38:55.383Z,1.30
2023-01-05T12:44:05.451Z,1.30
2023-01-05T12:49:08.846Z,1.00
2023-01-05T12:54:16.678Z,1.30
2023-01-05T12:59:22.762Z,1.27
2023-01-05T13:04:41.306Z,1.30
2023-01-05T13:09:43.405Z,1.40
2023-01-05T13:14:55.287Z,1.50
2023-01-05T13:20:01.891Z,1.20
2023-01-05T13:25:04.707Z,1.40
2023-01-05T13:30:09.088Z,1.40
2023-01-05T13:35:34.623Z,1.53
2023-01-05T13:40:52.743Z,1.63
2023-01-05T13:46:26.960Z,1.77
2023-01-05T13:51:35.872Z,1.10
2023-01-05T13:56:38.092Z,1.33
2023-01-05T14:01:41.970Z,1.40
2023-01-05T14:06:45.333Z,1.80
2023-01-05T14:12:20.773Z,1.20
2023-01-05T14:17:55.407Z,1.33
2023-01-05T14:22:57.354Z,1.10
2023-01-05T14:28:40.710Z,1.43
2023-01-05T14:33:48.111Z,1.20
2023-01-05T14:38:49.959Z,1.30
2023-01-05T14:43:55.444Z,1.07
2023-01-05T14:49:01.920Z,1.50
2023-01-05T14:54:04.767Z,1.23
2023-01-05T14:59:14.927Z,1.13
2023-01-05T15:04:19.935Z,1.10
2023-01-05T15:09:30.008Z,1.00
2023-01-05T15:14:48.849Z,1.73
2023-01-05T15:20:08.315Z,1.20
2023-01-05T15:25:49.268Z,1.10
2023-01-05T15:31:13.455Z,1.30
2023-01-05T15:36:21.955Z,1.33
2023-01-05T15:41:23.687Z,1.20
2023-01-05T15:46:32.026Z,1.37
2023-01-05T15:51:35.038Z,1.13
2023-01-05T15:56:40.667Z,1.40
2023-01-05T16:01:42.449Z,1.67
2023-01-05T16:06:45.864Z,2.10
2023-01-05T16:11:47.563Z,1.40
2023-01-05T16:16:53.315Z,1.93
2023-01-05T16:21:59.803Z,1.60
2023-01-05T16:27:02.597Z,1.97
2023-01-05T16:32:04.923Z,2.10
2023-01-05T16:37:16.191Z,1.83
2023-01-05T16:42:37.958Z,1.93
2023-01-05T16:47:41.054Z,1.70
2023-01-05T16:52:48.368Z,2.30
2023-01-05T16:57:50.182Z,2.07
2023-01-05T17:02:52.739Z,2.47
2023-01-05T17:08:02.277Z,1.60
2023-01-05T17:13:05.684Z,1.70
2023-01-05T17:18:15.081Z,3.23
2023-01-05T17:23:21.220Z,2.63
2023-01-05T17:28:24.362Z,3.50
2023-01-05T17:33:26.044Z,3.50
2023-01-05T17:38:29.114Z,3.23
2023-01-05T17:43:33.652Z,3.00
2023-01-05T17:48:35.445Z,2.50
2023-01-05T17:53:38.539Z,4.50
2023-01-05T17:58:40.506Z,3.70
2023-01-05T18:03:42.198Z,3.90
2023-01-05T18:08:45.323Z,4.30
2023-01-05T18:13:47.096Z,3.57
2023-01-05T18:18:48.783Z,20.90
2023-01-05T18:23:51.994Z,6.37
2023-01-05T18:28:54.224Z,5.07
2023-01-05T18:33:55.869Z,4.80
2023-01-05T18:38:58.921Z,3.30
2023-01-05T18:44:00.648Z,3.10
2023-01-05T18:49:02.721Z,2.90
2023-01-05T18:54:05.867Z,3.70
2023-01-05T18:59:07.573Z,3.17
2023-01-05T19:04:09.753Z,3.23
2023-01-05T19:09:13.601Z,3.10
2023-01-05T19:14:15.537Z,4.27
2023-01-05T19:19:19.264Z,3.57
2023-01-05T19:24:25.594Z,11.97
2023-01-05T19:29:27.321Z,7.70
2023-01-05T19:34:29.086Z,8.60
2023-01-05T19:39:32.085Z,6.10
2023-01-05T19:44:33.807Z,6.20
2023-01-05T19:49:35.554Z,4.47
2023-01-05T19:54:39.276Z,4.30
2023-01-05T19:59:41.030Z,4.57
2023-01-05T20:04:45.438Z,5.93
2023-01-05T20:09:48.840Z,4.40
2023-01-05T20:14:50.964Z,5.27
2023-01-05T20:19:52.735Z,5.13
2023-01-05T20:24:55.772Z,4.77
2023-01-05T20:29:57.431Z,5.47
2023-01-05T20:35:00.152Z,5.50
2023-01-05T20:40:04.503Z,5.83
2023-01-05T20:45:07.792Z,5.10
2023-01-05T20:50:09.597Z,7.73
2023-01-05T20:55:12.680Z,7.80
2023-01-05T21:00:16.567Z,8.60
2023-01-05T21:05:18.374Z,9.70
2023-01-05T21:10:21.510Z,10.23
2023-01-05T21:15:24.460Z,11.70
2023-01-05T21:20:27.655Z,11.80
2023-01-05T21:25:30.680Z,10.73
2023-01-05T21:30:52.392Z,12.57
2023-01-05T21:35:54.184Z,14.03
2023-01-05T21:41:03.969Z,15.17
2023-01-05T21:46:06.352Z,14.40
2023-01-05T21:51:28.130Z,14.87
2023-01-05T21:56:31.504Z,13.80
2023-01-05T22:01:33.274Z,17.47
2023-01-05T22:06:34.980Z,23.60
2023-01-05T22:11:38.028Z,18.00
2023-01-05T22:16:40.125Z,16.70
2023-01-05T22:21:42.054Z,15.97
2023-01-05T22:26:45.124Z,15.53
2023-01-05T22:31:47.082Z,16.07
2023-01-05T22:36:49.128Z,15.10
2023-01-05T22:41:52.158Z,16.00
2023-01-05T22:46:53.817Z,16.50
2023-01-05T22:51:55.496Z,15.93
2023-01-05T22:56:58.804Z,16.73
2023-01-05T23:02:00.523Z,16.47
2023-01-05T23:07:02.239Z,16.10
2023-01-05T23:12:05.532Z,20.50
2023-01-05T23:17:12.079Z,16.00
2023-01-05T23:22:13.755Z,15.80
2023-01-05T23:27:16.769Z,19.80
2023-01-05T23:32:18.419Z,19.27
2023-01-05T23:37:20.211Z,20.17
2023-01-05T23:42:41.813Z,18.37
2023-01-05T23:47:43.678Z,18.27
2023-01-05T23:52:45.426Z,17.30
2023-01-05T23:57:48.461Z,17.33
